Grant Township, Minnesota
Current Conditions -  °F | °C
As of 9:11 PM on Thursday 18 Dec 2014 (Local Time) from K21D Reporting Station
Overcast Overcast  
Wind Chill: 23°   Ceiling: 1700
Heat Index: 23°   Visibility: 10mi
Dew Point: 19°   Wind: 0mph
Humidity: 86%   Direction: NA
Pressure: 30.27"   Gusts: NA
Location:  45.051°N, 92.9612°W
Report Text: K21D 190311Z AUTO 00000KT 10SM OVC017 M05/M07 A3027 RMK AO2
Loading
Personal Weather Stations






























Interactive Weather Map New forecast layout! Learn more

10-Day Weather Forecast

Advertisements
Track Severe Weather on mobile